Time;durP1;ratioP1;P1;durP2;ratioP2;P2;SDS_P1;SDS_P2;PMS_P1;PMS_P2;Temp;Humidity;BMP_temperature;BMP_pressure;BME280_temperature;BME280_humidity;BME280_pressure;Samples;Min_cycle;Max_cycle;Signal;HPM_P1;HPM_P2
2022/03/19 00:00:33;;;;;;;9.52;7.35;;;;;;;16.12;36.11;97970.19;5137541;27;20519;-27
2022/03/19 00:02:59;;;;;;;8.82;7.07;;;;;;;16.12;36.03;97965.50;5137883;27;20023;-27
2022/03/19 00:05:25;;;;;;;9.95;7.25;;;;;;;16.12;36.06;97970.19;5137824;27;20114;-26
2022/03/19 00:07:51;;;;;;;9.55;7.00;;;;;;;16.17;35.75;97962.25;5137875;27;20029;-27
2022/03/19 00:10:16;;;;;;;9.13;6.63;;;;;;;16.08;35.71;97964.78;5137731;27;20023;-27
2022/03/19 00:12:42;;;;;;;11.02;7.90;;;;;;;16.12;35.89;97960.03;5119338;27;20023;-27
2022/03/19 00:15:10;;;;;;;9.38;7.07;;;;;;;16.05;35.79;97964.91;5137892;27;20027;-26
2022/03/19 00:17:36;;;;;;;10.43;7.28;;;;;;;16.05;35.70;97962.16;5137631;27;20023;-27
2022/03/19 00:20:03;;;;;;;10.30;7.68;;;;;;;15.97;35.94;97964.25;5137383;27;20475;-27
2022/03/19 00:22:29;;;;;;;9.10;6.70;;;;;;;15.86;35.83;97955.53;5137354;27;20027;-27
2022/03/19 00:24:55;;;;;;;10.00;6.75;;;;;;;15.84;36.23;97971.59;5137526;27;20038;-26
2022/03/19 00:27:20;;;;;;;11.45;7.65;;;;;;;15.90;35.77;97958.19;5137323;27;20019;-26
2022/03/19 00:29:46;;;;;;;10.00;7.03;;;;;;;15.94;35.58;97959.66;5137412;27;20055;-26
2022/03/19 00:32:12;;;;;;;8.68;6.80;;;;;;;16.05;35.54;97954.72;5137141;27;20070;-27
2022/03/19 00:34:37;;;;;;;8.15;6.72;;;;;;;15.71;35.62;97959.75;5137415;27;20471;-27
2022/03/19 00:37:03;;;;;;;9.40;6.55;;;;;;;15.93;35.26;97952.66;5137242;27;20023;-28
2022/03/19 00:39:29;;;;;;;9.27;6.75;;;;;;;15.89;35.17;97957.41;5137340;27;20098;-27
2022/03/19 00:41:54;;;;;;;9.65;6.55;;;;;;;15.97;34.93;97953.31;5137127;27;20015;-26
2022/03/19 00:44:21;;;;;;;8.20;6.63;;;;;;;15.93;35.04;97949.91;5136511;27;20031;-28
2022/03/19 00:46:48;;;;;;;8.68;6.60;;;;;;;15.98;34.99;97945.88;5136609;27;20023;-26
2022/03/19 00:49:14;;;;;;;12.23;7.47;;;;;;;15.97;34.96;97947.84;5137183;27;20023;-28
2022/03/19 00:51:40;;;;;;;8.95;6.40;;;;;;;15.91;34.51;97952.28;5136769;27;20484;-27
2022/03/19 00:54:07;;;;;;;9.73;7.07;;;;;;;15.96;34.55;97948.28;5136809;27;20462;-27
2022/03/19 00:56:33;;;;;;;9.02;6.47;;;;;;;15.95;34.69;97950.22;5137154;27;20019;-26
2022/03/19 00:58:58;;;;;;;9.23;6.63;;;;;;;16.01;34.74;97951.28;5136959;27;20027;-26
2022/03/19 01:01:24;;;;;;;9.38;6.72;;;;;;;16.01;34.61;97948.53;5136587;27;20037;-26
2022/03/19 01:03:50;;;;;;;9.23;6.88;;;;;;;15.90;35.14;97948.03;5136013;27;20016;-27
2022/03/19 01:06:15;;;;;;;9.32;6.97;;;;;;;15.94;34.96;97943.25;5135963;27;20106;-27
2022/03/19 01:08:41;;;;;;;10.27;7.45;;;;;;;15.91;34.68;97944.09;5136965;27;20023;-27
2022/03/19 01:11:06;;;;;;;11.35;7.20;;;;;;;15.88;34.60;97936.72;5136779;27;20043;-26
2022/03/19 01:13:32;;;;;;;10.27;7.28;;;;;;;15.96;34.79;97946.31;5117879;27;20023;-26
2022/03/19 01:15:58;;;;;;;9.70;7.15;;;;;;;15.88;34.86;97934.00;5136643;27;20023;-26
2022/03/19 01:18:24;;;;;;;10.13;6.80;;;;;;;15.90;34.75;97930.84;5136357;27;20154;-26
2022/03/19 01:20:50;;;;;;;8.27;5.80;;;;;;;15.93;34.67;97933.50;5136414;27;20034;-28
2022/03/19 01:23:15;;;;;;;9.23;6.70;;;;;;;15.91;34.56;97935.09;5136397;27;20022;-26
2022/03/19 01:25:42;;;;;;;8.20;6.38;;;;;;;15.89;34.55;97930.06;5136287;27;20023;-27
2022/03/19 01:28:07;;;;;;;8.35;6.80;;;;;;;15.90;34.62;97930.84;5136315;27;20058;-27
2022/03/19 01:30:33;;;;;;;11.52;6.75;;;;;;;15.86;34.87;97924.66;5136083;27;20106;-26
2022/03/19 01:32:58;;;;;;;9.32;6.32;;;;;;;15.91;34.48;97929.63;5136306;27;20022;-27
2022/03/19 01:35:24;;;;;;;10.95;7.43;;;;;;;15.85;34.99;97932.09;5135888;27;20034;-27
2022/03/19 01:37:50;;;;;;;10.05;6.93;;;;;;;15.86;34.76;97925.44;5136153;27;20110;-29
2022/03/19 01:40:17;;;;;;;10.15;7.00;;;;;;;15.82;34.67;97920.03;5135943;27;20023;-27
2022/03/19 01:42:46;;;;;;;9.60;6.53;;;;;;;15.84;34.91;97922.34;5117522;27;20023;-26
2022/03/19 01:45:14;;;;;;;9.75;6.95;;;;;;;15.87;34.71;97920.72;5135997;27;20026;-26
2022/03/19 01:47:40;;;;;;;9.32;6.85;;;;;;;15.88;34.56;97923.03;5117403;27;20031;-27
2022/03/19 01:50:07;;;;;;;8.88;6.30;;;;;;;15.84;34.67;97921.56;5135819;27;20033;-26
2022/03/19 01:52:33;;;;;;;8.57;6.57;;;;;;;15.96;34.56;97920.91;5135751;27;20046;-27
2022/03/19 01:54:59;;;;;;;10.10;7.10;;;;;;;15.92;34.57;97923.75;5135903;27;20136;-26
2022/03/19 01:57:30;;;;;;;8.25;6.05;;;;;;;15.83;34.79;97920.81;5135504;27;20027;-26
2022/03/19 01:59:57;;;;;;;9.85;7.10;;;;;;;15.83;34.64;97918.06;5135553;27;20049;-26
2022/03/19 02:02:25;;;;;;;9.93;7.10;;;;;;;15.78;34.93;97924.06;5135468;27;20023;-27
2022/03/19 02:04:52;;;;;;;10.52;6.90;;;;;;;15.79;34.96;97920.13;5135493;27;20029;-26
2022/03/19 02:07:18;;;;;;;10.00;6.47;;;;;;;15.80;34.77;97921.66;5117032;27;20027;-27
2022/03/19 02:09:43;;;;;;;9.32;6.93;;;;;;;15.75;35.02;97913.97;5135416;27;20034;-26
2022/03/19 02:12:09;;;;;;;8.60;5.80;;;;;;;15.80;34.91;97910.72;5135360;27;20417;-26
2022/03/19 02:14:36;;;;;;;9.82;6.43;;;;;;;15.78;34.95;97913.13;5135364;27;20025;-26
2022/03/19 02:17:04;;;;;;;10.80;6.72;;;;;;;15.83;34.99;97912.59;5135062;27;20081;-26
2022/03/19 02:19:30;;;;;;;8.38;6.45;;;;;;;15.78;34.74;97904.91;5117072;27;20050;-27
2022/03/19 02:21:56;;;;;;;9.73;6.53;;;;;;;15.85;34.80;97906.69;5116629;27;20027;-27
2022/03/19 02:27:05;;;;;;;10.70;6.97;;;;;;;15.76;34.90;97905.31;5135155;27;20494;-27
2022/03/19 02:29:31;;;;;;;9.20;6.75;;;;;;;15.75;34.98;97908.47;5134992;27;20035;-26
2022/03/19 02:31:59;;;;;;;9.80;6.60;;;;;;;15.84;34.80;97903.19;5134940;27;20040;-27
2022/03/19 02:34:25;;;;;;;10.20;6.70;;;;;;;15.75;35.23;97905.75;5134964;27;20023;-26
2022/03/19 02:36:51;;;;;;;9.77;7.07;;;;;;;15.74;34.93;97901.47;5134757;27;20451;-26
2022/03/19 02:39:18;;;;;;;9.20;6.80;;;;;;;15.79;34.97;97904.47;5135270;27;20039;-27
2022/03/19 02:41:47;;;;;;;7.50;6.20;;;;;;;15.70;35.36;97900.81;5134653;27;20094;-26
2022/03/19 02:44:15;;;;;;;8.18;5.97;;;;;;;15.67;35.14;97902.41;5134906;27;20398;-26
2022/03/19 02:46:47;;;;;;;7.60;6.03;;;;;;;15.65;35.29;97906.75;5134892;27;20089;-26
2022/03/19 02:49:13;;;;;;;12.02;7.10;;;;;;;15.69;35.18;97900.03;5134794;27;20031;-27
2022/03/19 02:51:40;;;;;;;9.38;7.03;;;;;;;15.72;35.29;97899.16;5134578;27;20027;-27
2022/03/19 02:54:08;;;;;;;10.10;6.85;;;;;;;15.63;35.32;97900.94;5134492;27;20027;-27
2022/03/19 02:56:35;;;;;;;10.60;6.50;;;;;;;15.67;34.96;97898.91;5134624;27;20063;-28
2022/03/19 02:59:09;;;;;;;8.75;6.70;;;;;;;15.70;35.19;97898.06;5134234;27;20117;-27
2022/03/19 03:01:35;;;;;;;10.75;6.65;;;;;;;15.68;35.54;97900.44;5134533;27;20026;-26
2022/03/19 03:04:02;;;;;;;8.15;5.88;;;;;;;15.67;35.16;97901.63;5134390;27;20033;-26
2022/03/19 03:06:28;;;;;;;10.95;7.10;;;;;;;15.72;35.04;97892.91;5134387;27;20019;-26
2022/03/19 03:08:55;;;;;;;8.95;6.43;;;;;;;15.73;35.14;97897.19;5134021;27;20031;-27
2022/03/19 03:11:20;;;;;;;9.82;6.40;;;;;;;15.70;35.16;97892.59;5134423;27;20022;-26
2022/03/19 03:13:46;;;;;;;9.38;6.90;;;;;;;15.72;35.21;97895.66;5134660;27;20027;-27
2022/03/19 03:16:12;;;;;;;9.05;6.57;;;;;;;15.72;35.14;97895.66;5134428;28;20046;-27
2022/03/19 03:18:38;;;;;;;10.07;6.55;;;;;;;15.68;35.28;97893.00;5134232;28;20156;-26
2022/03/19 03:21:03;;;;;;;8.15;6.45;;;;;;;15.50;35.92;97898.06;5134218;28;20027;-26
2022/03/19 03:23:31;;;;;;;8.93;6.75;;;;;;;15.56;35.60;97899.13;5134219;28;20023;-26
2022/03/19 03:25:57;;;;;;;10.02;7.00;;;;;;;15.60;35.37;97891.63;5115777;28;20497;-26
2022/03/19 03:28:22;;;;;;;9.93;6.32;;;;;;;15.62;35.25;97889.22;5134648;28;20035;-26
2022/03/19 03:30:48;;;;;;;8.05;6.50;;;;;;;15.66;35.35;97894.63;5134091;28;20117;-26
2022/03/19 03:33:14;;;;;;;10.15;6.60;;;;;;;15.64;35.23;97892.31;5134222;28;20492;-27
2022/03/19 03:35:40;;;;;;;9.65;6.55;;;;;;;15.61;35.48;97887.69;5134336;28;20023;-26
2022/03/19 03:38:05;;;;;;;12.43;6.68;;;;;;;15.60;35.33;97896.31;5134422;28;20062;-27
2022/03/19 03:40:31;;;;;;;11.82;6.43;;;;;;;15.67;35.39;97896.16;5133864;28;20374;-27
2022/03/19 03:42:56;;;;;;;8.73;6.53;;;;;;;15.63;35.34;97900.94;5134296;28;20031;-27
2022/03/19 03:45:23;;;;;;;9.65;7.22;;;;;;;15.58;35.52;97894.00;5134166;28;20019;-28
2022/03/19 03:47:49;;;;;;;10.43;7.00;;;;;;;15.67;35.15;97885.22;5133749;28;20062;-26
2022/03/19 03:50:15;;;;;;;10.35;6.63;;;;;;;15.62;35.34;97888.47;5133920;28;20536;-26
2022/03/19 03:52:41;;;;;;;11.52;6.53;;;;;;;15.55;35.54;97889.41;5134091;28;20027;-27
2022/03/19 03:55:07;;;;;;;9.80;6.78;;;;;;;15.61;35.44;97886.91;5134065;28;20057;-27
2022/03/19 03:57:34;;;;;;;9.07;6.60;;;;;;;15.59;35.33;97878.34;5133991;28;20015;-26
2022/03/19 04:00:05;;;;;;;9.32;6.72;;;;;;;15.60;35.10;97888.09;5133833;28;20103;-26
2022/03/19 04:02:30;;;;;;;10.07;6.78;;;;;;;15.59;35.65;97884.59;5133913;28;20387;-27
2022/03/19 04:04:56;;;;;;;8.90;6.80;;;;;;;15.52;35.65;97889.44;5134446;28;20023;-26
2022/03/19 04:07:23;;;;;;;10.13;6.32;;;;;;;15.58;35.61;97882.31;5133834;28;20100;-26
2022/03/19 04:09:49;;;;;;;10.32;6.65;;;;;;;15.61;35.37;97895.88;5134158;28;20023;-26
2022/03/19 04:12:15;;;;;;;9.27;6.72;;;;;;;15.45;35.56;97891.13;5133734;28;20383;-26
2022/03/19 04:14:41;;;;;;;10.60;6.82;;;;;;;15.54;35.57;97896.03;5115430;28;20467;-28
2022/03/19 04:17:06;;;;;;;9.75;6.50;;;;;;;15.50;35.79;97891.81;5133708;28;20030;-26
2022/03/19 04:19:32;;;;;;;10.00;7.05;;;;;;;15.56;35.44;97896.41;5134485;27;20027;-26
2022/03/19 04:21:58;;;;;;;9.50;6.35;;;;;;;15.54;35.47;97898.75;5137292;27;20435;-26
2022/03/19 04:24:23;;;;;;;9.95;7.63;;;;;;;15.57;35.35;97889.75;5137572;27;20023;-26
2022/03/19 04:26:49;;;;;;;9.75;6.90;;;;;;;15.56;35.50;97896.41;5137716;27;20380;-26
2022/03/19 04:29:14;;;;;;;10.82;7.03;;;;;;;15.54;35.35;97903.47;5137519;27;20030;-27
2022/03/19 04:31:40;;;;;;;10.25;6.93;;;;;;;15.59;35.23;97895.53;5137312;27;20017;-27
2022/03/19 04:34:06;;;;;;;10.57;7.45;;;;;;;15.32;35.80;97889.47;5137233;27;20026;-26
2022/03/19 04:36:32;;;;;;;10.52;6.85;;;;;;;15.48;35.67;97899.66;5137194;27;20026;-26
2022/03/19 04:39:05;;;;;;;8.68;6.75;;;;;;;15.43;35.58;97909.16;5137320;27;20102;-29
2022/03/19 04:41:32;;;;;;;10.07;7.22;;;;;;;15.50;35.49;97898.06;5137200;27;20068;-26
2022/03/19 04:43:58;;;;;;;10.52;6.75;;;;;;;15.54;35.33;97904.22;5136970;27;20075;-27
2022/03/19 04:46:23;;;;;;;11.05;6.78;;;;;;;15.46;35.50;97900.84;5137285;27;20523;-26
2022/03/19 04:48:49;;;;;;;10.95;7.00;;;;;;;15.45;35.91;97898.56;5136956;27;20356;-26
2022/03/19 04:51:17;;;;;;;10.73;7.28;;;;;;;15.39;35.67;97892.03;5137013;27;20026;-27
2022/03/19 04:53:50;;;;;;;10.15;6.97;;;;;;;15.42;35.30;97894.72;5137033;27;20089;-26
2022/03/19 04:56:18;;;;;;;9.75;7.70;;;;;;;15.44;35.34;97897.81;5118542;27;20023;-26
2022/03/19 04:58:44;;;;;;;10.18;6.85;;;;;;;15.40;35.41;97891.63;5136833;27;20080;-30
2022/03/19 05:01:10;;;;;;;9.38;6.97;;;;;;;15.34;35.53;97890.56;5136640;27;20632;-26
2022/03/19 05:03:35;;;;;;;11.23;7.53;;;;;;;15.37;35.40;97894.44;5136714;27;20027;-27
2022/03/19 05:06:01;;;;;;;9.80;6.80;;;;;;;15.44;35.54;97902.50;5136822;27;20019;-27
2022/03/19 05:08:26;;;;;;;9.45;6.82;;;;;;;15.39;35.68;97892.81;5136541;27;20019;-26
2022/03/19 05:13:36;;;;;;;9.63;6.82;;;;;;;15.34;35.53;97898.78;5136539;27;20029;-26
2022/03/19 05:16:02;;;;;;;9.23;6.53;;;;;;;15.40;35.13;97901.78;5136542;27;20023;-27
2022/03/19 05:18:27;;;;;;;11.52;6.75;;;;;;;15.42;35.42;97902.16;5136422;27;20420;-27
2022/03/19 05:20:53;;;;;;;10.25;7.03;;;;;;;15.45;35.16;97904.03;5136713;27;20027;-27
2022/03/19 05:23:18;;;;;;;10.27;6.80;;;;;;;15.37;35.52;97892.47;5136274;27;20391;-26
2022/03/19 05:25:44;;;;;;;8.73;6.85;;;;;;;15.43;35.27;97906.41;5136283;27;20023;-26
2022/03/19 05:28:10;;;;;;;9.15;6.40;;;;;;;15.49;35.18;97907.44;5136222;27;20030;-26
2022/03/19 05:30:37;;;;;;;11.85;6.90;;;;;;;15.38;35.14;97904.94;5116868;27;20439;-27
2022/03/19 05:33:04;;;;;;;8.48;6.35;;;;;;;15.39;35.31;97909.22;5117967;27;20055;-27
2022/03/19 05:35:30;;;;;;;7.65;6.25;;;;;;;15.40;35.41;97916.22;5134543;27;20030;-28
2022/03/19 05:37:59;;;;;;;10.07;6.47;;;;;;;15.35;35.33;97900.31;5122414;27;20088;-26
2022/03/19 05:40:25;;;;;;;8.60;6.65;;;;;;;15.40;35.20;97905.28;5133977;27;20091;-26
2022/03/19 05:42:51;;;;;;;8.10;6.70;;;;;;;15.37;35.33;97899.91;5117551;27;20051;-27
2022/03/19 05:45:19;;;;;;;10.32;6.53;;;;;;;15.36;35.21;97896.38;5113215;28;20055;-26
2022/03/19 05:47:45;;;;;;;9.05;6.50;;;;;;;15.36;35.41;97907.31;5113307;28;20034;-26
2022/03/19 05:50:12;;;;;;;8.68;6.55;;;;;;;15.32;35.53;97908.59;5113113;28;20094;-26
2022/03/19 05:52:39;;;;;;;9.32;7.03;;;;;;;15.34;35.24;97911.66;5113230;28;20024;-28
2022/03/19 05:55:05;;;;;;;9.63;6.45;;;;;;;15.37;35.27;97906.13;5127986;27;20023;-27
2022/03/19 05:57:30;;;;;;;10.32;7.07;;;;;;;15.42;35.37;97910.34;5114760;27;20039;-26
2022/03/19 05:59:56;;;;;;;10.15;6.55;;;;;;;15.32;35.17;97905.88;5123030;27;20040;-26
2022/03/19 06:02:22;;;;;;;9.43;6.63;;;;;;;15.38;35.20;97907.69;5107535;28;20035;-26
2022/03/19 06:04:47;;;;;;;11.02;6.30;;;;;;;15.31;35.27;97905.09;5101187;28;20111;-26
2022/03/19 06:07:13;;;;;;;12.45;6.88;;;;;;;15.32;35.37;97909.38;5102022;28;20039;-25
2022/03/19 06:09:38;;;;;;;10.35;6.88;;;;;;;15.26;35.51;97913.78;5092459;28;20035;-26
2022/03/19 06:12:04;;;;;;;11.23;6.50;;;;;;;15.24;35.69;97912.66;5090890;28;20059;-26
2022/03/19 06:14:30;;;;;;;9.45;6.55;;;;;;;15.28;35.57;97914.13;5092286;28;20023;-27
2022/03/19 06:16:55;;;;;;;10.02;6.38;;;;;;;15.35;35.31;97907.75;5109708;28;20464;-27
2022/03/19 06:19:21;;;;;;;8.80;6.32;;;;;;;15.30;35.54;97909.03;5112783;27;20036;-26
2022/03/19 06:21:47;;;;;;;9.93;6.47;;;;;;;15.31;35.49;97910.56;5112597;28;20118;-26
2022/03/19 06:24:13;;;;;;;10.10;6.68;;;;;;;15.27;35.66;97918.06;5112506;28;20031;-26
2022/03/19 06:26:39;;;;;;;8.70;6.65;;;;;;;15.24;35.50;97913.44;5112515;28;20472;-29
2022/03/19 06:29:05;;;;;;;9.15;6.38;;;;;;;15.34;35.29;97923.38;5112343;28;20047;-26
2022/03/19 06:31:31;;;;;;;9.95;6.57;;;;;;;15.35;35.28;97916.72;5095192;28;20032;-26
2022/03/19 06:33:57;;;;;;;10.50;6.10;;;;;;;15.36;35.48;97926.47;5091939;28;20380;-27
2022/03/19 06:39:07;;;;;;;9.57;6.97;;;;;;;15.32;35.38;97914.84;5092103;28;20035;-26
2022/03/19 06:41:33;;;;;;;10.10;7.05;;;;;;;15.28;35.54;97918.84;5091935;28;20032;-26
2022/03/19 06:43:59;;;;;;;10.35;6.35;;;;;;;15.22;35.87;97918.53;5092524;28;20039;-26
2022/03/19 06:46:25;;;;;;;9.05;6.55;;;;;;;15.29;35.41;97912.19;5091413;28;20039;-26
2022/03/19 06:48:50;;;;;;;11.85;6.20;;;;;;;15.28;35.67;97918.84;5093983;28;20078;-27
2022/03/19 06:51:18;;;;;;;10.07;6.55;;;;;;;15.35;35.42;97916.72;5091299;28;20016;-26
2022/03/19 06:53:44;;;;;;;13.32;6.97;;;;;;;15.33;35.51;97910.88;5091637;28;20062;-26
2022/03/19 06:56:10;;;;;;;9.85;6.68;;;;;;;15.30;35.75;97919.19;5091650;28;20031;-26
2022/03/19 06:58:36;;;;;;;12.80;7.20;;;;;;;15.23;35.79;97916.56;5091638;28;20032;-26
2022/03/19 07:01:03;;;;;;;11.90;6.90;;;;;;;15.22;35.95;97917.75;5110743;28;20051;-27
2022/03/19 07:03:31;;;;;;;8.93;6.20;;;;;;;15.18;36.15;97909.66;5111908;28;20130;-26
2022/03/19 07:05:56;;;;;;;8.98;6.28;;;;;;;15.30;35.60;97919.94;5111891;28;20391;-27
2022/03/19 07:08:22;;;;;;;9.65;6.43;;;;;;;15.23;36.14;97917.34;5112116;28;20032;-26
2022/03/19 07:10:48;;;;;;;11.32;7.15;;;;;;;15.33;35.80;97910.88;5111633;28;20058;-26
2022/03/19 07:13:14;;;;;;;8.63;6.03;;;;;;;15.19;35.81;97922.13;5111843;28;20031;-27
2022/03/19 07:15:41;;;;;;;10.35;6.80;;;;;;;15.35;35.75;97918.66;5112182;28;20072;-27
2022/03/19 07:18:06;;;;;;;9.50;6.63;;;;;;;15.31;35.63;97929.69;5093499;28;20428;-26
2022/03/19 07:20:32;;;;;;;11.13;7.10;;;;;;;15.20;35.78;97926.41;5111738;28;20058;-26
2022/03/19 07:22:59;;;;;;;10.18;6.63;;;;;;;15.10;36.30;97916.44;5112272;28;20059;-26
2022/03/19 07:25:28;;;;;;;9.63;6.32;;;;;;;15.18;36.06;97920.59;5133860;27;20020;-27
2022/03/19 07:27:57;;;;;;;10.07;6.53;;;;;;;15.13;36.23;97923.03;5134318;27;20467;-26
2022/03/19 07:30:23;;;;;;;9.75;6.53;;;;;;;15.25;35.92;97934.09;5133853;27;20049;-26
2022/03/19 07:32:49;;;;;;;9.50;6.82;;;;;;;15.18;35.96;97931.53;5134047;27;20072;-27
2022/03/19 07:35:15;;;;;;;9.27;6.50;;;;;;;15.25;36.08;97927.88;5134137;27;20092;-26
2022/03/19 07:37:45;;;;;;;10.25;6.50;;;;;;;15.25;36.04;97936.06;5115709;28;20031;-26
2022/03/19 07:41:45;;;;;;;9.60;6.72;;;;;;;15.21;36.09;97930.66;5134185;27;20027;-26
2022/03/19 07:43:04;;;;;;;9.38;6.55;;;;;;;15.04;36.38;97926.31;5134023;27;20035;-28
2022/03/19 07:45:30;;;;;;;11.90;6.28;;;;;;;15.23;36.16;97931.00;5134042;27;20432;-26
2022/03/19 07:47:56;;;;;;;13.25;6.50;;;;;;;15.22;36.07;97926.72;5134159;27;20135;-27
2022/03/19 07:50:22;;;;;;;9.75;6.60;;;;;;;15.18;36.15;97926.06;5133989;27;20023;-27
2022/03/19 07:52:48;;;;;;;10.02;6.25;;;;;;;15.14;36.29;97924.56;5133926;27;20019;-26
2022/03/19 07:55:13;;;;;;;11.40;6.25;;;;;;;14.99;36.57;97927.56;5136871;27;20058;-26
2022/03/19 07:57:39;;;;;;;8.82;6.38;;;;;;;15.18;36.15;97936.97;5138191;27;20052;-26
2022/03/19 08:00:05;;;;;;;9.25;6.22;;;;;;;15.18;36.36;97925.28;5137768;27;20043;-27
2022/03/19 08:02:31;;;;;;;10.23;6.70;;;;;;;15.16;36.18;97924.94;5137696;27;20380;-26
2022/03/19 08:04:58;;;;;;;9.40;6.22;;;;;;;15.24;36.22;97929.06;5138111;27;20026;-26
2022/03/19 08:07:24;;;;;;;8.68;6.50;;;;;;;15.15;36.64;97926.13;5138010;27;20019;-26
2022/03/19 08:09:49;;;;;;;9.27;6.43;;;;;;;15.20;36.47;97922.91;5137754;27;20496;-26
2022/03/19 08:12:15;;;;;;;11.90;7.10;;;;;;;15.19;36.40;97916.66;5137794;27;20102;-26
2022/03/19 08:14:41;;;;;;;8.68;6.07;;;;;;;15.21;36.40;97919.72;5137574;27;20023;-26
2022/03/19 08:17:06;;;;;;;8.63;6.43;;;;;;;15.24;36.56;97920.84;5137629;27;20023;-26
2022/03/19 08:19:32;;;;;;;9.82;6.07;;;;;;;15.18;36.53;97923.31;5137197;27;20033;-27
2022/03/19 08:21:57;;;;;;;8.95;6.47;;;;;;;15.18;36.49;97926.06;5137488;27;20015;-27
2022/03/19 08:24:25;;;;;;;9.27;5.95;;;;;;;15.21;36.59;97919.72;5118939;27;20109;-27
2022/03/19 08:26:53;;;;;;;9.02;6.13;;;;;;;15.23;36.47;97924.78;5137388;27;20072;-26
2022/03/19 08:29:23;;;;;;;9.93;6.47;;;;;;;15.23;36.47;97928.28;5137470;27;20471;-27
2022/03/19 08:31:50;;;;;;;10.55;6.80;;;;;;;15.15;36.38;97937.81;5136548;27;20025;-26
2022/03/19 08:34:16;;;;;;;11.52;6.97;;;;;;;15.19;36.25;97943.22;5137366;27;20452;-27
2022/03/19 08:36:41;;;;;;;10.65;6.57;;;;;;;15.23;36.36;97943.91;5137579;27;20027;-26
2022/03/19 08:41:51;;;;;;;8.73;6.47;;;;;;;15.20;36.38;97945.53;5137035;27;20022;-26
2022/03/19 08:44:16;;;;;;;9.27;6.25;;;;;;;15.22;36.74;97937.66;5137125;27;20023;-26
2022/03/19 08:46:42;;;;;;;8.65;6.25;;;;;;;15.13;36.76;97944.88;5137120;27;20118;-27
2022/03/19 08:49:07;;;;;;;9.30;6.70;;;;;;;15.09;36.99;97939.47;5136944;27;20039;-27
2022/03/19 08:51:39;;;;;;;9.70;5.97;;;;;;;15.26;36.66;97937.59;5137197;27;20023;-28
2022/03/19 08:54:05;;;;;;;8.77;5.78;;;;;;;15.12;36.73;97938.66;5118481;27;20532;-26
2022/03/19 08:56:32;;;;;;;10.45;6.20;;;;;;;15.01;36.98;97943.53;5136817;27;20071;-27
2022/03/19 08:58:58;;;;;;;10.60;5.88;;;;;;;15.16;36.88;97933.91;5136593;27;20106;-27
2022/03/19 09:01:23;;;;;;;7.20;5.80;;;;;;;15.18;36.77;97936.22;5136778;27;20025;-27
2022/03/19 09:03:49;;;;;;;8.98;6.20;;;;;;;15.00;37.02;97942.78;5136862;27;20102;-26
2022/03/19 09:06:17;;;;;;;9.30;6.40;;;;;;;14.92;37.79;97930.44;5136040;27;20023;-27
2022/03/19 09:08:44;;;;;;;8.70;5.82;;;;;;;15.12;36.91;97938.66;5136736;27;20015;-27
2022/03/19 09:11:10;;;;;;;9.13;6.05;;;;;;;15.12;37.07;97935.16;5136534;27;20063;-26
2022/03/19 09:13:36;;;;;;;8.80;6.38;;;;;;;15.19;36.89;97933.06;5136447;27;20046;-26
2022/03/19 09:16:06;;;;;;;10.07;6.28;;;;;;;15.06;37.14;97934.88;5136514;27;20015;-27
2022/03/19 09:18:32;;;;;;;9.35;6.22;;;;;;;15.19;36.97;97932.28;5136522;27;20064;-27
2022/03/19 09:20:58;;;;;;;9.27;6.18;;;;;;;15.08;37.10;97940.69;5136395;27;20027;-28
2022/03/19 09:23:24;;;;;;;10.10;6.30;;;;;;;15.19;37.02;97933.06;5123243;27;20023;-26
2022/03/19 09:25:49;;;;;;;9.38;6.10;;;;;;;15.16;36.95;97925.69;5114764;28;20099;-27
2022/03/19 09:28:15;;;;;;;9.57;6.63;;;;;;;15.18;36.94;97938.94;5115847;28;20024;-26
2022/03/19 09:30:41;;;;;;;9.77;6.38;;;;;;;15.21;37.20;97930.66;5115710;28;20055;-27
2022/03/19 09:33:06;;;;;;;8.60;6.50;;;;;;;15.32;36.94;97936.72;5115919;28;20456;-26
2022/03/19 09:35:32;;;;;;;10.30;6.63;;;;;;;15.26;37.09;97926.69;5115577;28;20068;-26
2022/03/19 09:37:58;;;;;;;11.23;7.18;;;;;;;15.14;37.06;97930.81;5115561;28;20110;-26
2022/03/19 09:40:24;;;;;;;9.43;6.28;;;;;;;14.99;37.69;97932.25;5115466;28;20460;-26
2022/03/19 09:42:53;;;;;;;11.38;6.22;;;;;;;15.21;37.20;97929.88;5115440;28;20434;-27
2022/03/19 09:45:20;;;;;;;8.70;6.35;;;;;;;15.19;37.40;97929.56;5115430;28;20029;-26
2022/03/19 09:47:47;;;;;;;8.25;5.95;;;;;;;15.06;37.38;97934.88;5115371;28;20027;-27
2022/03/19 09:50:13;;;;;;;13.85;6.95;;;;;;;15.08;37.21;97948.91;5115232;28;20106;-26
2022/03/19 09:52:42;;;;;;;8.73;6.53;;;;;;;15.19;37.40;97943.22;5115301;28;20133;-27
2022/03/19 09:55:12;;;;;;;9.50;6.03;;;;;;;15.25;37.03;97925.91;5115184;28;20019;-26
2022/03/19 09:57:38;;;;;;;9.05;6.68;;;;;;;15.28;36.97;97929.75;5115434;28;20417;-27
2022/03/19 10:00:04;;;;;;;9.10;6.43;;;;;;;15.23;37.26;97922.81;5115009;28;20050;-26
2022/03/19 10:02:30;;;;;;;9.77;6.40;;;;;;;15.33;37.06;97919.09;5115212;28;20028;-27
2022/03/19 10:08:35;;;;;;;8.18;6.43;;;;;;;15.32;36.96;97916.81;5114912;28;20430;-27
2022/03/19 10:10:34;;;;;;;9.77;6.40;;;;;;;15.22;37.28;97920.50;5115244;28;20387;-26
2022/03/19 10:13:00;;;;;;;11.43;6.85;;;;;;;15.26;37.36;97919.25;5096503;28;20111;-26
2022/03/19 10:15:27;;;;;;;11.07;6.78;;;;;;;15.14;37.38;97917.16;5114334;28;20019;-27
2022/03/19 10:18:00;;;;;;;9.00;6.38;;;;;;;15.26;37.25;97916.50;5116487;27;20023;-27
2022/03/19 10:20:27;;;;;;;;;;;;;;;15.29;37.12;97920.38;5114737;28;20422;-27
2022/03/19 10:22:56;;;;;;;11.55;7.32;;;;;;;15.14;37.57;97922.63;5102055;27;19915;-26
2022/03/19 10:25:22;;;;;;;10.63;6.90;;;;;;;15.05;37.57;97911.47;5128098;27;20502;-26
2022/03/19 10:27:47;;;;;;;16.50;8.75;;;;;;;15.06;37.51;97913.03;5135103;27;20027;-26
2022/03/19 10:30:16;;;;;;;13.07;7.97;;;;;;;15.05;37.75;97911.47;5134953;27;20023;-26
2022/03/19 10:32:46;;;;;;;13.05;7.70;;;;;;;15.19;37.31;97913.16;5134904;27;20098;-26
2022/03/19 10:35:32;;;;;;;12.77;8.10;;;;;;;15.19;37.50;97915.91;5116586;27;20160;-27
2022/03/19 10:38:00;;;;;;;14.23;7.88;;;;;;;15.13;37.68;97912.09;5134909;27;20023;-28
2022/03/19 10:40:39;;;;;;;14.27;7.90;;;;;;;15.13;37.43;97912.88;5134939;27;20015;-27
2022/03/19 10:43:07;;;;;;;12.57;7.47;;;;;;;15.20;37.72;97906.50;5135074;27;20029;-27
2022/03/19 10:45:33;;;;;;;13.10;8.25;;;;;;;15.24;37.39;97907.97;5134680;27;20214;-27
2022/03/19 10:48:02;;;;;;;14.55;8.68;;;;;;;14.88;38.09;97904.38;5115751;27;20054;-26
2022/03/19 10:50:27;;;;;;;12.32;7.45;;;;;;;15.11;37.66;97901.59;5134656;27;20490;-26
2022/03/19 10:52:54;;;;;;;11.13;7.63;;;;;;;15.10;37.78;97908.22;5125617;27;20032;-27
2022/03/19 10:55:21;;;;;;;14.00;7.95;;;;;;;15.28;37.19;97908.66;5127812;27;20030;-27
2022/03/19 10:57:47;;;;;;;13.65;7.97;;;;;;;14.99;37.88;97908.44;5130427;27;20038;-26
2022/03/19 11:00:13;;;;;;;15.80;8.48;;;;;;;15.13;37.73;97899.19;5111820;28;20434;-27
2022/03/19 11:02:47;;;;;;;15.60;8.48;;;;;;;15.05;37.78;97903.28;5111765;28;20466;-27
2022/03/19 11:05:15;;;;;;;11.68;7.82;;;;;;;15.33;37.18;97901.94;5111871;28;20039;-28
2022/03/19 11:07:43;;;;;;;12.93;8.20;;;;;;;15.13;37.61;97901.94;5112058;28;20031;-26
2022/03/19 11:10:09;;;;;;;12.05;8.23;;;;;;;15.26;37.23;97897.38;5114142;28;20140;-26
2022/03/19 11:12:40;;;;;;;12.88;8.40;;;;;;;14.98;37.37;97895.97;5132428;27;20043;-26
2022/03/19 11:15:09;;;;;;;15.00;8.50;;;;;;;15.16;37.36;97898.38;5132395;27;20106;-27
2022/03/19 11:17:38;;;;;;;13.48;8.98;;;;;;;15.30;37.17;97895.34;5132263;27;20060;-26
2022/03/19 11:20:06;;;;;;;12.23;7.95;;;;;;;15.30;37.21;97889.88;5132408;28;20023;-27
2022/03/19 11:22:39;;;;;;;15.65;8.07;;;;;;;15.37;37.19;97891.69;5131866;28;20034;-26
2022/03/19 11:25:16;;;;;;;12.40;7.53;;;;;;;15.21;37.35;97889.66;5132355;28;20062;-26
2022/03/19 11:27:44;;;;;;;15.88;7.57;;;;;;;15.30;37.31;97886.38;5113636;28;20027;-26
2022/03/19 11:30:24;;;;;;;10.30;7.28;;;;;;;15.34;37.00;97887.84;5135022;27;20030;-26
2022/03/19 11:33:08;;;;;;;13.80;7.78;;;;;;;15.27;37.40;97884.50;5136659;27;20011;-26
2022/03/19 11:35:38;;;;;;;13.07;7.63;;;;;;;15.28;37.38;97881.34;5117983;27;20389;-26
2022/03/19 11:38:13;;;;;;;9.18;6.93;;;;;;;15.09;37.54;97879.38;5136539;27;20034;-28
2022/03/19 11:40:43;;;;;;;13.80;7.97;;;;;;;15.27;37.31;97879.03;5136120;27;20027;-27